createdAt,value
2018-05-13T00:01:29.235Z,71.30
2018-05-13T00:03:57.622Z,71.60
2018-05-13T00:06:25.245Z,71.60
2018-05-13T00:08:52.857Z,71.60
2018-05-13T00:11:21.218Z,72.50
2018-05-13T00:13:48.827Z,72.40
2018-05-13T00:16:16.463Z,72.80
2018-05-13T00:18:44.041Z,73.10
2018-05-13T00:21:11.690Z,73.30
2018-05-13T00:23:39.293Z,73.50
2018-05-13T00:26:06.899Z,74.30
2018-05-13T00:28:35.299Z,74.70
2018-05-13T00:31:02.915Z,74.60
2018-05-13T00:33:30.549Z,74.60
2018-05-13T00:35:58.137Z,74.80
2018-05-13T00:38:25.703Z,75.00
2018-05-13T00:40:53.296Z,75.00
2018-05-13T00:43:20.933Z,75.00
2018-05-13T00:45:49.323Z,75.50
2018-05-13T00:48:17.703Z,75.50
2018-05-13T00:50:46.130Z,75.60
2018-05-13T00:53:13.719Z,75.60
2018-05-13T00:55:41.416Z,75.60
2018-05-13T00:58:08.984Z,75.60
2018-05-13T01:00:36.675Z,75.60
2018-05-13T01:03:04.245Z,75.60
2018-05-13T01:05:31.863Z,75.70
2018-05-13T01:07:59.483Z,76.00
2018-05-13T01:10:27.086Z,75.90
2018-05-13T01:12:54.705Z,75.90
2018-05-13T01:15:22.315Z,75.80
2018-05-13T01:17:49.934Z,75.80
2018-05-13T01:20:17.569Z,76.10
2018-05-13T01:22:45.192Z,76.10
2018-05-13T01:25:12.835Z,76.20
2018-05-13T01:27:40.458Z,76.20
2018-05-13T01:30:08.104Z,76.30
2018-05-13T01:32:35.718Z,76.30
2018-05-13T01:35:04.111Z,76.70
2018-05-13T01:37:31.692Z,76.50
2018-05-13T01:39:59.297Z,76.80
2018-05-13T01:42:26.926Z,76.90
2018-05-13T01:44:54.564Z,77.00
2018-05-13T01:47:22.106Z,77.00
2018-05-13T01:49:50.624Z,77.10
2018-05-13T01:52:18.262Z,77.10
2018-05-13T01:54:45.892Z,77.20
2018-05-13T01:57:14.328Z,77.60
2018-05-13T01:59:41.926Z,77.60
2018-05-13T02:02:10.301Z,77.70
2018-05-13T02:04:37.880Z,77.70
2018-05-13T02:07:06.258Z,78.00
2018-05-13T02:09:34.618Z,77.90
2018-05-13T02:12:02.202Z,77.90
2018-05-13T02:14:30.552Z,78.30
2018-05-13T02:16:58.136Z,78.30
2018-05-13T02:19:26.493Z,78.60
2018-05-13T02:21:54.153Z,78.60
2018-05-13T02:24:21.760Z,78.60
2018-05-13T02:26:49.390Z,78.60
2018-05-13T02:29:17.738Z,78.60
2018-05-13T02:31:45.343Z,78.80
2018-05-13T02:34:13.764Z,78.70
2018-05-13T02:36:41.384Z,78.70
2018-05-13T02:39:09.813Z,78.70
2018-05-13T02:41:37.407Z,78.50
2018-05-13T02:44:05.027Z,79.10
2018-05-13T02:46:32.596Z,79.20
2018-05-13T02:49:00.213Z,79.20
2018-05-13T02:51:27.834Z,79.20
2018-05-13T02:53:55.485Z,79.60
2018-05-13T02:56:23.007Z,79.80
2018-05-13T02:58:50.646Z,79.70
2018-05-13T03:01:19.064Z,79.80
2018-05-13T03:03:46.692Z,79.80
2018-05-13T03:06:15.065Z,79.70
2018-05-13T03:08:42.681Z,79.70
2018-05-13T03:11:10.246Z,79.80
2018-05-13T03:13:37.861Z,79.70
2018-05-13T03:16:05.499Z,80.10
2018-05-13T03:18:33.866Z,80.10
2018-05-13T03:21:01.503Z,80.10
2018-05-13T03:23:29.140Z,80.10
2018-05-13T03:25:56.749Z,80.30
2018-05-13T03:28:25.121Z,79.70
2018-05-13T03:30:52.753Z,80.00
2018-05-13T03:33:20.339Z,79.90
2018-05-13T03:35:47.949Z,79.90
2018-05-13T03:38:15.583Z,79.90
2018-05-13T03:40:43.160Z,79.70
2018-05-13T03:43:11.520Z,79.70
2018-05-13T03:45:40.843Z,79.80
2018-05-13T03:48:08.423Z,79.80
2018-05-13T03:50:36.039Z,79.80
2018-05-13T03:53:04.440Z,79.80
2018-05-13T03:55:32.077Z,79.80
2018-05-13T03:57:59.711Z,79.80
2018-05-13T04:00:27.361Z,79.80
2018-05-13T04:02:54.953Z,79.80
2018-05-13T04:05:22.575Z,79.80
2018-05-13T04:11:16.933Z,79.20
2018-05-13T04:13:56.302Z,79.20
2018-05-13T04:16:23.848Z,78.90
2018-05-13T04:18:52.221Z,78.30
2018-05-13T04:21:20.606Z,78.10
2018-05-13T04:23:48.279Z,78.10
2018-05-13T04:26:16.068Z,78.10
2018-05-13T04:28:43.833Z,77.80
2018-05-13T04:31:11.453Z,77.30
2018-05-13T04:33:39.839Z,76.90
2018-05-13T04:36:08.193Z,76.00
2018-05-13T04:38:35.846Z,76.00
2018-05-13T04:41:04.201Z,74.00
2018-05-13T04:43:31.827Z,74.00
2018-05-13T04:45:59.455Z,73.00
2018-05-13T04:48:27.045Z,72.20
2018-05-13T04:50:54.645Z,72.30
2018-05-13T04:53:22.271Z,71.00
2018-05-13T04:55:49.901Z,70.30
2018-05-13T04:58:17.526Z,68.60
2018-05-13T05:00:45.091Z,66.10
2018-05-13T05:03:12.701Z,65.50
2018-05-13T05:05:40.306Z,64.60
2018-05-13T05:08:07.921Z,63.10
2018-05-13T05:10:36.329Z,59.10
2018-05-13T05:13:03.969Z,59.00
2018-05-13T05:15:31.591Z,58.10
2018-05-13T05:17:59.192Z,56.80
2018-05-13T05:20:26.792Z,56.10
2018-05-13T05:22:54.350Z,53.70
2018-05-13T05:25:21.987Z,51.70
2018-05-13T05:27:49.567Z,50.90
2018-05-13T05:30:17.195Z,49.40
2018-05-13T05:32:44.843Z,48.70
2018-05-13T05:35:12.405Z,47.20
2018-05-13T05:37:40.804Z,45.70
2018-05-13T05:40:08.379Z,45.70
2018-05-13T05:42:35.983Z,44.30
2018-05-13T05:45:03.579Z,42.70
2018-05-13T05:47:31.134Z,42.10
2018-05-13T05:49:58.713Z,40.00
2018-05-13T05:52:26.276Z,39.30
2018-05-13T05:54:54.053Z,39.70
2018-05-13T05:57:21.724Z,39.40
2018-05-13T05:59:49.304Z,40.10
2018-05-13T06:02:16.853Z,40.10
2018-05-13T06:04:44.404Z,39.50
2018-05-13T06:07:11.974Z,38.30
2018-05-13T06:09:39.624Z,37.30
2018-05-13T06:12:07.252Z,34.70
2018-05-13T06:14:34.822Z,34.50
2018-05-13T06:17:02.421Z,32.50
2018-05-13T06:19:31.574Z,32.30
2018-05-13T06:21:59.194Z,32.30
2018-05-13T06:24:26.804Z,32.30
2018-05-13T06:26:54.417Z,33.00
2018-05-13T06:29:22.214Z,33.30
2018-05-13T06:31:49.811Z,32.90
2018-05-13T06:34:17.396Z,33.00
2018-05-13T06:36:44.968Z,33.00
2018-05-13T06:39:13.288Z,35.40
2018-05-13T06:41:40.902Z,35.40
2018-05-13T06:44:08.546Z,37.50
2018-05-13T06:46:36.156Z,39.30
2018-05-13T06:49:03.800Z,39.60
2018-05-13T06:51:31.470Z,41.80
2018-05-13T06:53:59.132Z,44.00
2018-05-13T06:56:26.736Z,46.70
2018-05-13T06:58:54.382Z,47.20
2018-05-13T07:01:22.023Z,49.20
2018-05-13T07:03:49.666Z,48.70
2018-05-13T07:06:18.062Z,49.70
2018-05-13T07:08:45.664Z,49.60
2018-05-13T07:11:13.310Z,49.30
2018-05-13T07:13:40.914Z,50.10
2018-05-13T07:16:08.536Z,49.90
2018-05-13T07:18:36.396Z,51.00
2018-05-13T07:21:04.012Z,50.70
2018-05-13T07:23:32.385Z,50.80
2018-05-13T07:25:59.995Z,50.80
2018-05-13T07:28:27.586Z,52.00
2018-05-13T07:30:55.216Z,50.70
2018-05-13T07:33:22.889Z,51.00
2018-05-13T07:35:50.528Z,53.20
2018-05-13T07:38:18.169Z,51.30
2018-05-13T07:40:46.545Z,50.70
2018-05-13T07:43:14.900Z,50.90
2018-05-13T07:45:42.529Z,50.70
2018-05-13T07:48:10.152Z,51.70
2018-05-13T07:50:37.779Z,50.70
2018-05-13T07:53:05.364Z,50.70
2018-05-13T07:55:33.713Z,51.50
2018-05-13T07:58:01.299Z,51.50
2018-05-13T08:00:29.654Z,50.30
2018-05-13T08:02:57.241Z,50.30
2018-05-13T08:05:26.673Z,51.90
2018-05-13T08:07:54.453Z,51.80
2018-05-13T08:10:22.081Z,52.30
2018-05-13T08:12:50.509Z,51.40
2018-05-13T08:15:18.134Z,51.40
2018-05-13T08:17:45.757Z,51.20
2018-05-13T08:20:13.448Z,51.10
2018-05-13T08:22:41.913Z,50.30
2018-05-13T08:25:10.341Z,52.20
2018-05-13T08:27:37.975Z,51.50
2018-05-13T08:30:05.559Z,52.10
2018-05-13T08:32:33.175Z,52.30
2018-05-13T08:35:01.551Z,51.50
2018-05-13T08:37:29.963Z,49.30
2018-05-13T08:39:57.645Z,48.80
2018-05-13T08:42:25.272Z,49.00
2018-05-13T08:44:52.862Z,48.80
2018-05-13T08:47:20.409Z,49.60
2018-05-13T08:49:47.999Z,48.40
2018-05-13T08:52:15.595Z,48.70
2018-05-13T08:54:43.969Z,48.90
2018-05-13T08:57:11.514Z,48.90
2018-05-13T08:59:39.298Z,48.70
2018-05-13T09:02:06.899Z,49.50
2018-05-13T09:04:34.499Z,48.80
2018-05-13T09:07:02.131Z,48.30
2018-05-13T09:09:29.736Z,48.00
2018-05-13T09:11:58.153Z,47.90
2018-05-13T09:14:25.789Z,47.90
2018-05-13T09:16:54.146Z,49.30
2018-05-13T09:19:21.774Z,49.40
2018-05-13T09:21:49.353Z,50.20
2018-05-13T09:24:16.955Z,47.10
2018-05-13T09:26:44.528Z,47.20
2018-05-13T09:29:12.164Z,47.20
2018-05-13T09:31:40.600Z,46.10
2018-05-13T09:34:08.217Z,46.10
2018-05-13T09:36:35.864Z,46.50
2018-05-13T09:39:04.236Z,45.80
2018-05-13T09:41:31.872Z,45.80
2018-05-13T09:43:59.490Z,46.70
2018-05-13T09:46:27.322Z,46.00
2018-05-13T09:48:54.890Z,46.30
2018-05-13T09:51:23.338Z,45.30
2018-05-13T09:53:50.949Z,45.30
2018-05-13T09:56:19.371Z,45.00
2018-05-13T09:58:46.940Z,45.00
2018-05-13T10:01:14.522Z,45.30
2018-05-13T10:03:42.158Z,44.50
2018-05-13T10:06:09.765Z,44.20
2018-05-13T10:08:38.192Z,43.80
2018-05-13T10:11:05.775Z,43.90
2018-05-13T10:13:33.360Z,43.30
2018-05-13T10:16:01.711Z,43.80
2018-05-13T10:18:29.383Z,43.80
2018-05-13T10:20:57.773Z,43.20
2018-05-13T10:23:26.147Z,42.70
2018-05-13T10:25:53.853Z,42.70
2018-05-13T10:28:21.735Z,43.10
2018-05-13T10:30:49.337Z,42.80
2018-05-13T10:33:16.949Z,42.50
2018-05-13T10:35:44.588Z,41.90
2018-05-13T10:38:12.217Z,42.00
2018-05-13T10:40:39.860Z,41.70
2018-05-13T10:43:07.409Z,39.40
2018-05-13T10:45:34.994Z,40.40
2018-05-13T10:48:02.728Z,40.40
2018-05-13T10:50:30.310Z,41.10
2018-05-13T10:52:57.914Z,40.60
2018-05-13T10:55:25.530Z,40.10
2018-05-13T10:57:53.261Z,39.90
2018-05-13T11:00:21.030Z,38.60
2018-05-13T11:02:48.615Z,39.50
2018-05-13T11:05:26.161Z,40.00
2018-05-13T11:07:53.789Z,39.80
2018-05-13T11:10:21.485Z,38.10
2018-05-13T11:12:49.020Z,38.40
2018-05-13T11:15:17.410Z,38.00
2018-05-13T11:18:10.278Z,37.90
2018-05-13T11:20:37.884Z,37.10
2018-05-13T11:23:19.202Z,36.50
2018-05-13T11:25:46.798Z,37.10
2018-05-13T11:28:16.328Z,37.70
2018-05-13T11:30:43.959Z,37.90
2018-05-13T11:33:11.579Z,37.90
2018-05-13T11:35:52.679Z,38.00
2018-05-13T11:38:20.220Z,37.90
2018-05-13T11:40:49.580Z,36.90
2018-05-13T11:43:17.242Z,36.90
2018-05-13T11:45:44.897Z,36.10
2018-05-13T11:48:12.449Z,32.60
2018-05-13T11:50:54.843Z,30.00
2018-05-13T11:53:22.451Z,27.80
2018-05-13T11:55:50.185Z,27.10
2018-05-13T11:58:17.765Z,28.60
2018-05-13T12:00:45.386Z,29.40
2018-05-13T12:03:16.399Z,30.10
2018-05-13T12:05:44.805Z,31.00
2018-05-13T12:08:12.437Z,30.90
2018-05-13T12:10:40.793Z,29.80
2018-05-13T12:13:08.441Z,29.60
2018-05-13T12:15:36.789Z,27.10
2018-05-13T12:18:04.408Z,27.00
2018-05-13T12:20:32.031Z,26.70
2018-05-13T12:22:59.587Z,26.50
2018-05-13T12:25:27.184Z,27.30
2018-05-13T12:30:56.980Z,30.10
2018-05-13T12:33:24.743Z,30.10
2018-05-13T12:35:52.320Z,30.80
2018-05-13T12:38:32.547Z,31.20
2018-05-13T12:41:00.139Z,28.80
2018-05-13T12:43:29.270Z,26.10
2018-05-13T12:45:57.683Z,26.00
2018-05-13T12:48:25.299Z,26.00
2018-05-13T12:50:57.651Z,26.60
2018-05-13T12:53:25.287Z,27.10
2018-05-13T12:55:52.901Z,27.30
2018-05-13T12:58:21.208Z,27.20
2018-05-13T13:00:48.806Z,27.20
2018-05-13T13:03:16.387Z,28.80
2018-05-13T13:05:44.035Z,29.20
2018-05-13T13:08:11.628Z,30.40
2018-05-13T13:10:39.966Z,33.40
2018-05-13T13:13:07.590Z,33.50
2018-05-13T13:15:36.245Z,31.90
2018-05-13T13:18:21.870Z,31.90
2018-05-13T13:20:49.477Z,31.80
2018-05-13T13:23:17.063Z,32.80
2018-05-13T13:25:44.666Z,34.90
2018-05-13T13:28:12.266Z,34.80
2018-05-13T13:30:39.890Z,33.50
2018-05-13T13:33:07.499Z,32.40
2018-05-13T13:35:35.830Z,31.00
2018-05-13T13:38:03.426Z,30.90
2018-05-13T13:40:31.805Z,29.80
2018-05-13T13:43:10.601Z,29.40
2018-05-13T13:45:40.645Z,29.10
2018-05-13T13:48:09.006Z,29.30
2018-05-13T13:50:38.140Z,29.80
2018-05-13T13:53:05.767Z,29.80
2018-05-13T13:55:46.375Z,30.90
2018-05-13T13:58:13.998Z,32.50
2018-05-13T14:00:41.599Z,33.90
2018-05-13T14:03:09.247Z,34.30
2018-05-13T14:05:37.727Z,34.90
2018-05-13T14:08:05.333Z,34.80
2018-05-13T14:10:32.995Z,34.10
2018-05-13T14:13:00.599Z,35.20
2018-05-13T14:15:29.001Z,35.60
2018-05-13T14:17:56.613Z,36.00
2018-05-13T14:20:24.245Z,36.90
2018-05-13T14:22:51.778Z,36.60
2018-05-13T14:25:19.395Z,36.90
2018-05-13T14:27:51.079Z,37.20
2018-05-13T14:30:18.753Z,36.80
2018-05-13T14:32:46.365Z,36.00
2018-05-13T14:35:13.967Z,36.40
2018-05-13T14:37:41.549Z,36.80
2018-05-13T14:40:09.193Z,36.60
2018-05-13T14:42:36.765Z,36.40
2018-05-13T14:45:04.384Z,36.70
2018-05-13T14:47:31.953Z,38.30
2018-05-13T14:49:59.639Z,38.70
2018-05-13T14:52:27.215Z,42.20
2018-05-13T14:54:54.808Z,45.70
2018-05-13T14:57:22.439Z,45.80
2018-05-13T14:59:50.036Z,47.00
2018-05-13T15:02:17.636Z,47.20
2018-05-13T15:04:45.354Z,48.90
2018-05-13T15:07:19.747Z,47.80
2018-05-13T15:09:47.523Z,49.10
2018-05-13T15:12:15.124Z,48.90
2018-05-13T15:14:42.717Z,50.00
2018-05-13T15:17:10.363Z,49.10
2018-05-13T15:19:38.907Z,52.50
2018-05-13T15:22:06.485Z,52.50
2018-05-13T15:24:34.209Z,52.00
2018-05-13T15:27:01.821Z,52.30
2018-05-13T15:29:30.179Z,52.50
2018-05-13T15:31:57.815Z,52.50
2018-05-13T15:34:25.431Z,53.00
2018-05-13T15:36:53.788Z,51.40
2018-05-13T15:39:21.416Z,51.40
2018-05-13T15:41:48.958Z,52.10
2018-05-13T15:44:16.584Z,52.10
2018-05-13T15:46:44.945Z,51.40
2018-05-13T15:49:12.556Z,51.40
2018-05-13T15:51:40.195Z,51.90
2018-05-13T15:54:08.570Z,52.40
2018-05-13T15:56:37.812Z,52.40
2018-05-13T15:59:05.454Z,52.40
2018-05-13T16:01:33.046Z,52.80
2018-05-13T16:04:00.690Z,52.80
2018-05-13T16:06:28.306Z,50.90
2018-05-13T16:08:56.690Z,50.60
2018-05-13T16:11:25.055Z,50.60
2018-05-13T16:13:52.674Z,50.60
2018-05-13T16:16:20.312Z,50.30
2018-05-13T16:18:47.893Z,49.60
2018-05-13T16:21:15.452Z,50.60
2018-05-13T16:23:43.064Z,49.30
2018-05-13T16:26:11.895Z,49.80
2018-05-13T16:28:39.508Z,49.80
2018-05-13T16:31:07.130Z,49.60
2018-05-13T16:33:34.789Z,50.20
2018-05-13T16:36:03.118Z,50.30
2018-05-13T16:38:31.545Z,50.60
2018-05-13T16:40:59.116Z,50.50
2018-05-13T16:43:26.740Z,50.00
2018-05-13T16:45:54.384Z,50.50
2018-05-13T16:48:23.368Z,50.30
2018-05-13T16:50:50.985Z,50.30
2018-05-13T16:53:28.882Z,50.00
2018-05-13T16:55:56.496Z,50.40
2018-05-13T16:58:24.894Z,51.80
2018-05-13T17:00:52.521Z,51.80
2018-05-13T17:03:20.140Z,56.70
2018-05-13T17:05:47.782Z,60.90
2018-05-13T17:08:15.420Z,62.30
2018-05-13T17:10:43.802Z,63.80
2018-05-13T17:13:12.205Z,64.90
2018-05-13T17:15:39.909Z,64.90
2018-05-13T17:18:07.508Z,65.70
2018-05-13T17:20:35.870Z,67.60
2018-05-13T17:23:03.462Z,67.60
2018-05-13T17:25:31.074Z,67.90
2018-05-13T17:27:58.640Z,69.20
2018-05-13T17:30:27.044Z,69.60
2018-05-13T17:32:55.441Z,69.40
2018-05-13T17:35:23.034Z,69.20
2018-05-13T17:37:50.629Z,70.20
2018-05-13T17:40:18.215Z,69.90
2018-05-13T17:42:45.790Z,70.20
2018-05-13T17:45:13.406Z,70.50
2018-05-13T17:47:41.028Z,70.30
2018-05-13T17:50:08.639Z,71.30
2018-05-13T17:52:40.121Z,74.20
2018-05-13T17:55:07.712Z,74.00
2018-05-13T17:57:35.436Z,79.20
2018-05-13T18:00:02.956Z,80.70
2018-05-13T18:02:31.390Z,84.00
2018-05-13T18:05:06.891Z,84.10
2018-05-13T18:07:34.471Z,86.00
2018-05-13T18:10:02.881Z,89.10
2018-05-13T18:15:37.391Z,91.40
2018-05-13T18:18:09.136Z,90.40
2018-05-13T18:20:36.748Z,90.30
2018-05-13T18:23:04.338Z,92.10
2018-05-13T18:25:31.939Z,92.00
2018-05-13T18:27:59.574Z,92.00
2018-05-13T18:30:27.183Z,92.40
2018-05-13T18:32:54.822Z,91.40
2018-05-13T18:35:26.473Z,90.90
2018-05-13T18:37:54.877Z,90.30
2018-05-13T18:40:22.531Z,90.30
2018-05-13T18:42:56.264Z,90.30
2018-05-13T18:45:23.886Z,90.40
2018-05-13T18:47:52.259Z,90.20
2018-05-13T18:50:21.117Z,90.30
2018-05-13T18:52:48.751Z,90.20
2018-05-13T18:55:16.361Z,90.30
2018-05-13T18:57:49.159Z,90.40
2018-05-13T19:00:16.779Z,90.30
2018-05-13T19:02:44.379Z,90.30
2018-05-13T19:05:12.029Z,90.30
2018-05-13T19:07:40.427Z,90.30
2018-05-13T19:10:08.065Z,90.30
2018-05-13T19:12:36.463Z,90.00
2018-05-13T19:15:07.335Z,90.00
2018-05-13T19:17:34.953Z,90.00
2018-05-13T19:20:03.377Z,88.90
2018-05-13T19:22:31.243Z,88.90
2018-05-13T19:24:59.015Z,89.40
2018-05-13T19:27:26.676Z,89.60
2018-05-13T19:29:54.342Z,88.90
2018-05-13T19:32:22.017Z,89.00
2018-05-13T19:34:49.658Z,89.20
2018-05-13T19:37:17.521Z,89.00
2018-05-13T19:39:45.213Z,89.80
2018-05-13T19:42:12.875Z,89.90
2018-05-13T19:44:41.319Z,90.20
2018-05-13T19:47:08.991Z,90.20
2018-05-13T19:49:36.628Z,90.30
2018-05-13T19:52:04.255Z,90.30
2018-05-13T19:54:31.927Z,90.60
2018-05-13T19:56:59.577Z,90.60
2018-05-13T19:59:27.999Z,91.00
2018-05-13T20:01:55.695Z,91.00
2018-05-13T20:04:23.338Z,91.20
2018-05-13T20:06:54.897Z,91.40
2018-05-13T20:09:22.570Z,91.60
2018-05-13T20:12:07.103Z,92.00
2018-05-13T20:14:36.000Z,92.30
2018-05-13T20:17:08.929Z,92.60
2018-05-13T20:19:36.664Z,92.70
2018-05-13T20:22:06.372Z,93.00
2018-05-13T20:24:43.751Z,93.40
2018-05-13T20:27:11.352Z,93.90
2018-05-13T20:29:39.076Z,93.80
2018-05-13T20:32:06.712Z,93.90
2018-05-13T20:34:34.266Z,94.30
2018-05-13T20:37:01.966Z,94.00
2018-05-13T20:39:29.728Z,94.20
2018-05-13T20:41:57.366Z,93.90
2018-05-13T20:44:29.145Z,93.70
2018-05-13T20:46:56.782Z,93.60
2018-05-13T20:49:24.422Z,93.50
2018-05-13T20:51:52.777Z,94.00
2018-05-13T20:54:32.864Z,94.00
2018-05-13T20:57:00.500Z,94.00
2018-05-13T20:59:28.136Z,94.20
2018-05-13T21:01:55.762Z,94.00
2018-05-13T21:04:28.238Z,94.00
2018-05-13T21:06:55.821Z,94.00
2018-05-13T21:09:23.440Z,94.00
2018-05-13T21:11:59.732Z,93.70
2018-05-13T21:14:27.345Z,93.60
2018-05-13T21:16:55.715Z,93.50
2018-05-13T21:19:23.318Z,93.50
2018-05-13T21:21:51.296Z,93.60
2018-05-13T21:24:18.962Z,93.50
2018-05-13T21:26:47.491Z,93.20
2018-05-13T21:29:16.191Z,93.20
2018-05-13T21:31:45.776Z,93.10
2018-05-13T21:34:14.862Z,93.20
2018-05-13T21:36:42.519Z,92.90
2018-05-13T21:39:10.122Z,93.20
2018-05-13T21:41:37.754Z,93.10
2018-05-13T21:44:05.344Z,93.10
2018-05-13T21:46:33.712Z,92.90
2018-05-13T21:49:02.076Z,93.10
2018-05-13T21:51:31.236Z,93.50
2018-05-13T21:53:58.906Z,93.50
2018-05-13T21:56:26.464Z,93.10
2018-05-13T21:58:56.000Z,93.30
2018-05-13T22:01:23.618Z,93.30
2018-05-13T22:03:51.227Z,93.10
2018-05-13T22:06:18.806Z,93.00
2018-05-13T22:08:47.236Z,93.10
2018-05-13T22:11:14.845Z,93.10
2018-05-13T22:13:43.237Z,93.40
2018-05-13T22:16:10.861Z,93.40
2018-05-13T22:18:38.479Z,93.60
2018-05-13T22:21:06.113Z,93.70
2018-05-13T22:23:33.738Z,93.80
2018-05-13T22:26:01.302Z,93.80
2018-05-13T22:28:28.920Z,93.70
2018-05-13T22:30:56.524Z,93.40
2018-05-13T22:33:24.154Z,93.50
2018-05-13T22:35:51.822Z,93.50
2018-05-13T22:38:19.424Z,93.70
2018-05-13T22:40:47.774Z,93.80
2018-05-13T22:43:15.429Z,93.80
2018-05-13T22:45:43.008Z,94.00
2018-05-13T22:48:10.653Z,94.30
2018-05-13T22:50:38.308Z,94.40
2018-05-13T22:53:05.954Z,94.20
2018-05-13T22:55:33.570Z,94.40
2018-05-13T22:58:01.202Z,94.20
2018-05-13T23:00:28.852Z,94.40
2018-05-13T23:02:56.478Z,94.30
2018-05-13T23:05:24.131Z,94.70
2018-05-13T23:07:51.703Z,94.40
2018-05-13T23:10:19.296Z,94.50
2018-05-13T23:12:46.957Z,94.10
2018-05-13T23:15:14.594Z,94.10
2018-05-13T23:17:42.240Z,94.20
2018-05-13T23:20:10.643Z,93.90
2018-05-13T23:22:38.207Z,93.90
2018-05-13T23:25:05.843Z,94.10
2018-05-13T23:27:34.211Z,94.30
2018-05-13T23:30:02.611Z,94.00
2018-05-13T23:32:30.197Z,94.00
2018-05-13T23:34:57.784Z,94.10
2018-05-13T23:37:25.397Z,94.00
2018-05-13T23:39:52.933Z,93.90
2018-05-13T23:42:21.301Z,93.70
2018-05-13T23:44:48.853Z,93.60
2018-05-13T23:47:16.491Z,93.60
2018-05-13T23:49:44.105Z,93.30
2018-05-13T23:52:11.730Z,93.30
2018-05-13T23:54:39.335Z,93.70
2018-05-13T23:57:08.409Z,93.30
2018-05-13T23:59:36.770Z,92.80
